Boystown, Nebraska
Current Conditions -  °F | °C
As of 1:35 PM on Friday 31 Oct 2014 (Local Time) from KMLE Reporting Station
Clear Clear  
Wind Chill: 33°   Ceiling: Unl
Heat Index: 40°   Visibility: 10mi
Dew Point: 19°   Wind: 9mph
Humidity: 44%   Direction: 360°N
Pressure: 30.55"   Gusts: NA
Location:  41.259°N, 96.1267°W
Report Text: KMLE 311835Z AUTO 36008KT 10SM CLR 04/M07 A3055 RMK AO2 T00421071
Loading
Personal Weather Stations






























Interactive Weather Map
Tropical Storm Tracking
New forecast layout! Learn more

10-Day Weather Forecast

Advertisements
Track Severe Weather on mobile